Gretna, South Dakota
Current Conditions -  °F | °C
As of 8:05 AM on Sunday 25 Jan 2015 (Local Time) from KABR Reporting Station
Overcast Overcast  
Wind Chill: 20°   Ceiling: 800
Heat Index: 28°   Visibility: 10mi
Dew Point: 24°   Wind: 8mph
Humidity: 85%   Direction: 10°N
Pressure: 29.99"   Gusts: NA
Location:  45.4011°N, 99.3273°W
Report Text: KABR 251405Z AUTO 01007KT 10SM BKN008 OVC017 M02/M04 A2999 RMK AO2 T10221044
Loading
Personal Weather Stations






























Interactive Weather Map New forecast layout! Learn more

10-Day Weather Forecast

Advertisements
Track Severe Weather on mobile